createdAt,value
2018-02-21T00:02:24.212Z,73.71
2018-02-21T00:04:51.951Z,73.78
2018-02-21T00:07:19.672Z,73.88
2018-02-21T00:09:47.451Z,73.92
2018-02-21T00:12:15.168Z,74.10
2018-02-21T00:14:42.912Z,74.30
2018-02-21T00:17:10.655Z,74.38
2018-02-21T00:19:38.416Z,74.49
2018-02-21T00:22:06.179Z,74.52
2018-02-21T00:24:33.939Z,74.74
2018-02-21T00:27:01.713Z,74.69
2018-02-21T00:29:29.428Z,74.78
2018-02-21T00:31:57.167Z,74.82
2018-02-21T00:34:24.902Z,74.80
2018-02-21T00:36:52.672Z,74.90
2018-02-21T00:39:20.388Z,75.01
2018-02-21T00:41:48.134Z,74.90
2018-02-21T00:44:15.965Z,74.69
2018-02-21T00:46:43.731Z,74.85
2018-02-21T00:49:11.491Z,74.85
2018-02-21T00:51:39.230Z,74.65
2018-02-21T00:56:33.972Z,74.50
2018-02-21T00:59:01.736Z,74.39
2018-02-21T01:01:29.504Z,74.39
2018-02-21T01:03:57.247Z,74.41
2018-02-21T01:06:25.035Z,74.54
2018-02-21T01:08:52.771Z,74.56
2018-02-21T01:11:20.492Z,74.30
2018-02-21T01:13:48.323Z,74.06
2018-02-21T01:16:16.040Z,74.01
2018-02-21T01:18:43.779Z,73.89
2018-02-21T01:21:11.496Z,74.06
2018-02-21T01:23:39.288Z,73.80
2018-02-21T01:26:07.012Z,73.66
2018-02-21T01:28:34.759Z,73.81
2018-02-21T01:31:02.486Z,73.85
2018-02-21T01:33:30.252Z,73.60
2018-02-21T01:35:58.013Z,73.67
2018-02-21T01:38:25.775Z,73.37
2018-02-21T01:40:53.544Z,73.43
2018-02-21T01:43:21.259Z,73.31
2018-02-21T01:45:49.067Z,73.00
2018-02-21T01:48:16.794Z,73.27
2018-02-21T01:50:52.397Z,73.30
2018-02-21T01:53:20.142Z,73.15
2018-02-21T01:55:47.906Z,73.15
2018-02-21T01:58:15.633Z,73.28
2018-02-21T02:00:43.543Z,73.48
2018-02-21T02:03:11.268Z,73.51
2018-02-21T02:05:39.084Z,73.31
2018-02-21T02:08:06.812Z,73.25
2018-02-21T02:10:34.621Z,73.20
2018-02-21T02:13:02.363Z,73.36
2018-02-21T02:15:30.084Z,73.18
2018-02-21T02:17:57.872Z,73.20
2018-02-21T02:20:25.601Z,73.14
2018-02-21T02:22:53.445Z,73.19
2018-02-21T02:25:21.160Z,73.33
2018-02-21T02:27:48.904Z,73.29
2018-02-21T02:30:16.630Z,73.11
2018-02-21T02:32:44.373Z,73.14
2018-02-21T02:35:12.096Z,74.05
2018-02-21T02:37:39.924Z,74.21
2018-02-21T02:40:07.639Z,74.26
2018-02-21T02:42:35.461Z,74.24
2018-02-21T02:45:03.229Z,74.58
2018-02-21T02:47:30.948Z,74.87
2018-02-21T02:49:58.753Z,74.57
2018-02-21T02:52:26.629Z,74.87
2018-02-21T02:54:54.372Z,74.79
2018-02-21T02:57:22.148Z,74.63
2018-02-21T03:02:16.933Z,74.67
2018-02-21T03:04:44.728Z,74.69
2018-02-21T03:07:12.444Z,74.66
2018-02-21T03:09:40.268Z,74.67
2018-02-21T03:12:08.001Z,74.91
2018-02-21T03:14:35.740Z,75.20
2018-02-21T03:17:03.565Z,75.25
2018-02-21T03:19:31.308Z,75.25
2018-02-21T03:21:59.083Z,75.34
2018-02-21T03:24:26.847Z,75.67
2018-02-21T03:26:54.588Z,75.97
2018-02-21T03:29:22.308Z,76.16
2018-02-21T03:31:50.152Z,76.26
2018-02-21T03:34:17.908Z,76.29
2018-02-21T03:36:45.644Z,76.19
2018-02-21T03:39:13.439Z,76.17
2018-02-21T03:41:41.212Z,76.32
2018-02-21T03:44:08.934Z,76.57
2018-02-21T03:46:36.741Z,76.66
2018-02-21T03:49:04.511Z,76.83
2018-02-21T03:51:32.268Z,77.15
2018-02-21T03:53:59.992Z,77.52
2018-02-21T03:56:27.738Z,77.31
2018-02-21T03:58:55.470Z,77.47
2018-02-21T04:01:23.332Z,77.69
2018-02-21T04:03:51.096Z,78.04
2018-02-21T04:06:18.866Z,78.11
2018-02-21T04:08:46.625Z,78.19
2018-02-21T04:11:14.392Z,78.24
2018-02-21T04:13:42.161Z,77.76
2018-02-21T04:16:09.881Z,77.65
2018-02-21T04:18:37.683Z,77.91
2018-02-21T04:21:05.400Z,77.78
2018-02-21T04:23:33.212Z,77.70
2018-02-21T04:26:00.982Z,77.63
2018-02-21T04:28:28.729Z,77.65
2018-02-21T04:30:56.444Z,77.56
2018-02-21T04:33:24.199Z,77.13
2018-02-21T04:35:51.944Z,77.06
2018-02-21T04:38:19.663Z,76.94
2018-02-21T04:40:47.408Z,77.04
2018-02-21T04:43:15.231Z,76.97
2018-02-21T04:45:42.973Z,77.02
2018-02-21T04:48:10.733Z,76.75
2018-02-21T04:50:38.528Z,76.93
2018-02-21T04:53:06.248Z,76.88
2018-02-21T04:55:39.604Z,76.91
2018-02-21T04:58:12.954Z,76.79
2018-02-21T05:00:40.763Z,76.53
2018-02-21T05:03:08.524Z,76.34
2018-02-21T05:05:36.283Z,76.38
2018-02-21T05:08:04.004Z,76.38
2018-02-21T05:10:31.745Z,76.41
2018-02-21T05:12:59.465Z,76.23
2018-02-21T05:15:27.345Z,76.17
2018-02-21T05:17:55.068Z,76.25
2018-02-21T05:20:22.877Z,76.41
2018-02-21T05:22:50.639Z,76.48
2018-02-21T05:25:18.356Z,76.77
2018-02-21T05:27:46.139Z,76.85
2018-02-21T05:30:13.904Z,77.16
2018-02-21T05:32:41.669Z,77.03
2018-02-21T05:35:09.400Z,77.00
2018-02-21T05:37:37.140Z,76.99
2018-02-21T05:40:04.892Z,77.00
2018-02-21T05:42:32.666Z,77.09
2018-02-21T05:45:00.433Z,77.23
2018-02-21T05:47:28.190Z,76.97
2018-02-21T05:49:55.965Z,76.98
2018-02-21T05:52:23.709Z,77.05
2018-02-21T05:54:51.495Z,77.29
2018-02-21T05:57:19.352Z,76.85
2018-02-21T05:59:47.171Z,76.73
2018-02-21T06:02:14.988Z,76.60
2018-02-21T06:04:42.757Z,76.68
2018-02-21T06:07:10.484Z,76.71
2018-02-21T06:09:38.284Z,76.25
2018-02-21T06:12:06.011Z,76.32
2018-02-21T06:14:33.764Z,76.47
2018-02-21T06:17:01.484Z,76.49
2018-02-21T06:19:29.232Z,77.03
2018-02-21T06:21:57.829Z,77.49
2018-02-21T06:24:25.568Z,77.83
2018-02-21T06:26:53.361Z,77.59
2018-02-21T06:29:21.104Z,77.92
2018-02-21T06:31:48.896Z,78.08
2018-02-21T06:34:16.665Z,77.76
2018-02-21T06:36:44.415Z,77.44
2018-02-21T06:39:12.188Z,77.14
2018-02-21T06:41:39.925Z,76.89
2018-02-21T06:44:07.641Z,76.81
2018-02-21T06:46:35.476Z,76.73
2018-02-21T06:49:03.281Z,76.90
2018-02-21T06:51:31.108Z,77.11
2018-02-21T06:53:58.881Z,76.87
2018-02-21T06:56:26.624Z,76.83
2018-02-21T06:58:54.412Z,76.78
2018-02-21T07:01:22.165Z,76.53
2018-02-21T07:03:49.885Z,76.48
2018-02-21T07:06:17.629Z,76.55
2018-02-21T07:08:45.365Z,76.53
2018-02-21T07:11:13.108Z,76.53
2018-02-21T07:13:40.828Z,76.56
2018-02-21T07:16:08.633Z,76.66
2018-02-21T07:18:36.578Z,76.78
2018-02-21T07:21:04.363Z,76.82
2018-02-21T07:23:32.160Z,76.73
2018-02-21T07:25:59.933Z,76.55
2018-02-21T07:28:27.692Z,76.35
2018-02-21T07:30:55.467Z,76.49
2018-02-21T07:33:23.235Z,76.56
2018-02-21T07:35:50.988Z,76.38
2018-02-21T07:38:18.756Z,76.54
2018-02-21T07:40:46.485Z,76.46
2018-02-21T07:43:14.228Z,76.29
2018-02-21T07:45:42.055Z,75.98
2018-02-21T07:48:09.804Z,75.79
2018-02-21T07:50:37.533Z,75.47
2018-02-21T07:53:05.284Z,75.33
2018-02-21T07:55:33.077Z,75.21
2018-02-21T07:58:00.849Z,75.23
2018-02-21T08:00:28.577Z,75.06
2018-02-21T08:02:56.405Z,74.93
2018-02-21T08:05:24.171Z,74.91
2018-02-21T08:07:51.940Z,74.87
2018-02-21T08:10:19.667Z,74.83
2018-02-21T08:12:47.392Z,74.70
2018-02-21T08:15:15.145Z,74.71
2018-02-21T08:17:42.904Z,74.64
2018-02-21T08:20:10.653Z,74.55
2018-02-21T08:22:38.495Z,74.39
2018-02-21T08:25:06.241Z,74.32
2018-02-21T08:27:34.060Z,74.30
2018-02-21T08:30:01.829Z,74.13
2018-02-21T08:32:29.555Z,74.03
2018-02-21T08:34:57.320Z,74.02
2018-02-21T08:37:25.036Z,73.87
2018-02-21T08:39:52.851Z,73.74
2018-02-21T08:42:20.648Z,73.94
2018-02-21T08:44:48.412Z,74.10
2018-02-21T08:47:16.180Z,74.21
2018-02-21T08:49:43.949Z,74.05
2018-02-21T08:52:11.606Z,73.98
2018-02-21T08:54:39.372Z,73.96
2018-02-21T08:57:07.088Z,74.09
2018-02-21T08:59:34.729Z,74.11
2018-02-21T09:02:02.394Z,74.11
2018-02-21T09:04:30.132Z,74.31
2018-02-21T09:06:57.860Z,74.55
2018-02-21T09:09:25.552Z,74.59
2018-02-21T09:11:53.316Z,74.66
2018-02-21T09:14:20.991Z,74.68
2018-02-21T09:16:48.753Z,74.77
2018-02-21T09:19:16.384Z,74.64
2018-02-21T09:21:44.045Z,74.76
2018-02-21T09:24:11.736Z,74.83
2018-02-21T09:26:39.500Z,74.73
2018-02-21T09:29:07.287Z,74.68
2018-02-21T09:31:35.000Z,74.67
2018-02-21T09:34:02.636Z,74.43
2018-02-21T09:36:30.280Z,73.51
2018-02-21T09:38:58.029Z,73.47
2018-02-21T09:41:25.784Z,73.27
2018-02-21T09:43:53.597Z,71.23
2018-02-21T09:46:21.320Z,70.23
2018-02-21T09:48:49.049Z,68.79
2018-02-21T09:51:16.746Z,66.54
2018-02-21T09:53:44.408Z,65.43
2018-02-21T09:56:12.057Z,64.85
2018-02-21T09:58:39.724Z,63.68
2018-02-21T10:01:07.366Z,61.93
2018-02-21T10:03:35.025Z,61.35
2018-02-21T10:06:02.720Z,60.18
2018-02-21T10:08:30.484Z,59.00
2018-02-21T10:10:58.219Z,58.95
2018-02-21T10:13:25.912Z,58.83
2018-02-21T10:15:53.579Z,57.12
2018-02-21T10:18:21.278Z,56.78
2018-02-21T10:20:49.076Z,56.61
2018-02-21T10:23:16.770Z,56.11
2018-02-21T10:25:44.436Z,55.33
2018-02-21T10:28:12.097Z,54.61
2018-02-21T10:30:39.756Z,53.60
2018-02-21T10:33:07.423Z,52.14
2018-02-21T10:35:35.088Z,52.45
2018-02-21T10:38:02.724Z,51.53
2018-02-21T10:40:30.482Z,51.55
2018-02-21T10:42:58.111Z,50.47
2018-02-21T10:45:25.835Z,50.80
2018-02-21T10:47:53.484Z,50.15
2018-02-21T10:50:21.164Z,50.45
2018-02-21T10:52:48.835Z,51.11
2018-02-21T10:55:16.593Z,50.44
2018-02-21T10:57:44.256Z,51.18
2018-02-21T11:00:11.916Z,52.20
2018-02-21T11:02:39.580Z,52.32
2018-02-21T11:05:07.212Z,52.57
2018-02-21T11:07:36.449Z,53.49
2018-02-21T11:10:04.108Z,53.92
2018-02-21T11:12:31.868Z,52.83
2018-02-21T11:14:59.538Z,52.52
2018-02-21T11:17:27.229Z,51.99
2018-02-21T11:19:54.961Z,51.90
2018-02-21T11:22:22.724Z,52.50
2018-02-21T11:24:50.414Z,52.59
2018-02-21T11:27:18.084Z,52.59
2018-02-21T11:29:45.816Z,51.92
2018-02-21T11:32:13.477Z,51.66
2018-02-21T11:34:41.214Z,51.36
2018-02-21T11:37:08.909Z,51.35
2018-02-21T11:39:36.557Z,50.97
2018-02-21T11:42:04.233Z,50.65
2018-02-21T11:44:32.004Z,49.03
2018-02-21T11:46:59.645Z,48.37
2018-02-21T11:49:27.308Z,48.42
2018-02-21T11:51:54.955Z,48.57
2018-02-21T11:54:22.614Z,48.89
2018-02-21T11:56:50.256Z,49.02
2018-02-21T11:59:17.976Z,49.45
2018-02-21T12:01:45.616Z,50.20
2018-02-21T12:04:13.278Z,50.42
2018-02-21T12:06:40.964Z,50.68
2018-02-21T12:09:08.633Z,50.80
2018-02-21T12:11:36.268Z,51.26
2018-02-21T12:14:03.933Z,51.39
2018-02-21T12:16:31.576Z,51.76
2018-02-21T12:18:59.280Z,52.42
2018-02-21T12:21:26.939Z,53.11
2018-02-21T12:23:54.708Z,53.38
2018-02-21T12:26:22.369Z,53.46
2018-02-21T12:28:50.136Z,53.50
2018-02-21T12:31:17.768Z,53.70
2018-02-21T12:33:45.454Z,53.94
2018-02-21T12:36:13.124Z,54.29
2018-02-21T12:38:40.765Z,54.74
2018-02-21T12:41:14.003Z,54.60
2018-02-21T12:43:41.648Z,53.77
2018-02-21T12:46:09.307Z,52.83
2018-02-21T12:48:36.968Z,52.90
2018-02-21T12:51:04.806Z,53.46
2018-02-21T12:53:32.500Z,53.88
2018-02-21T12:56:00.264Z,54.20
2018-02-21T12:58:27.929Z,54.75
2018-02-21T13:00:55.700Z,55.26
2018-02-21T13:03:23.357Z,55.63
2018-02-21T13:05:51.087Z,55.91
2018-02-21T13:08:18.970Z,56.13
2018-02-21T13:10:46.641Z,56.28
2018-02-21T13:13:14.284Z,56.62
2018-02-21T13:15:42.144Z,56.82
2018-02-21T13:18:09.793Z,57.02
2018-02-21T13:20:37.433Z,56.69
2018-02-21T13:23:05.102Z,56.57
2018-02-21T13:25:32.740Z,56.34
2018-02-21T13:28:00.498Z,56.37
2018-02-21T13:30:28.165Z,56.17
2018-02-21T13:32:55.828Z,55.36
2018-02-21T13:35:23.468Z,55.95
2018-02-21T13:37:51.134Z,55.72
2018-02-21T13:40:18.773Z,55.42
2018-02-21T13:42:46.436Z,55.49
2018-02-21T13:45:14.104Z,55.20
2018-02-21T13:47:41.800Z,55.20
2018-02-21T13:50:09.459Z,55.08
2018-02-21T13:52:37.237Z,54.90
2018-02-21T13:55:04.881Z,54.46
2018-02-21T13:57:32.540Z,53.48
2018-02-21T14:00:00.223Z,53.43
2018-02-21T14:02:27.880Z,52.95
2018-02-21T14:04:55.614Z,52.78
2018-02-21T14:07:23.299Z,52.98
2018-02-21T14:09:50.952Z,53.12
2018-02-21T14:12:18.642Z,53.30
2018-02-21T14:14:46.304Z,53.51
2018-02-21T14:17:13.941Z,53.84
2018-02-21T14:19:41.624Z,54.52
2018-02-21T14:22:09.256Z,55.62
2018-02-21T14:24:36.928Z,56.42
2018-02-21T14:27:04.604Z,56.95
2018-02-21T14:29:32.279Z,57.24
2018-02-21T14:31:59.945Z,57.59
2018-02-21T14:34:27.575Z,58.02
2018-02-21T14:36:55.232Z,58.53
2018-02-21T14:39:22.877Z,58.38
2018-02-21T14:41:50.537Z,58.53
2018-02-21T14:44:18.215Z,58.49
2018-02-21T14:46:45.885Z,58.04
2018-02-21T14:49:13.576Z,57.50
2018-02-21T14:51:41.228Z,57.26
2018-02-21T14:54:08.859Z,57.43
2018-02-21T14:56:36.534Z,56.93
2018-02-21T14:59:04.229Z,56.39
2018-02-21T15:01:31.889Z,55.65
2018-02-21T15:03:59.524Z,55.86
2018-02-21T15:06:27.221Z,55.50
2018-02-21T15:08:54.861Z,55.42
2018-02-21T15:11:22.549Z,55.20
2018-02-21T15:13:50.213Z,55.50
2018-02-21T15:16:23.574Z,55.90
2018-02-21T15:18:51.234Z,56.32
2018-02-21T15:21:18.877Z,56.89
2018-02-21T15:23:46.541Z,56.96
2018-02-21T15:26:14.261Z,57.11
2018-02-21T15:28:41.920Z,57.23
2018-02-21T15:31:09.592Z,57.50
2018-02-21T15:33:37.252Z,57.79
2018-02-21T15:36:04.917Z,58.07
2018-02-21T15:38:32.696Z,58.20
2018-02-21T15:41:00.333Z,58.40
2018-02-21T15:43:27.996Z,58.59
2018-02-21T15:45:55.636Z,58.77
2018-02-21T15:48:23.286Z,58.98
2018-02-21T15:50:50.948Z,59.30
2018-02-21T15:53:18.649Z,59.15
2018-02-21T15:55:46.313Z,59.25
2018-02-21T15:58:13.981Z,59.51
2018-02-21T16:00:41.740Z,59.76
2018-02-21T16:03:09.384Z,60.00
2018-02-21T16:05:37.045Z,60.25
2018-02-21T16:08:04.728Z,60.42
2018-02-21T16:10:32.392Z,60.80
2018-02-21T16:13:00.064Z,61.08
2018-02-21T16:15:27.819Z,61.18
2018-02-21T16:17:55.488Z,61.49
2018-02-21T16:20:23.249Z,61.70
2018-02-21T16:22:50.916Z,61.88
2018-02-21T16:25:18.553Z,62.09
2018-02-21T16:27:46.235Z,62.27
2018-02-21T16:30:13.970Z,62.56
2018-02-21T16:32:41.632Z,62.84
2018-02-21T16:35:09.335Z,63.05
2018-02-21T16:37:37.101Z,63.25
2018-02-21T16:40:04.756Z,63.63
2018-02-21T16:42:32.524Z,63.82
2018-02-21T16:45:00.165Z,64.08
2018-02-21T16:47:27.849Z,64.48
2018-02-21T16:49:55.517Z,64.70
2018-02-21T16:52:23.276Z,64.96
2018-02-21T16:54:50.950Z,65.46
2018-02-21T16:57:18.704Z,65.60
2018-02-21T16:59:46.340Z,65.92
2018-02-21T17:02:14.030Z,66.05
2018-02-21T17:04:41.672Z,66.23
2018-02-21T17:07:09.323Z,66.36
2018-02-21T17:09:37.016Z,66.56
2018-02-21T17:12:04.680Z,66.68
2018-02-21T17:14:32.348Z,66.96
2018-02-21T17:17:00.013Z,66.97
2018-02-21T17:19:27.772Z,67.07
2018-02-21T17:21:56.005Z,67.12
2018-02-21T17:24:23.717Z,67.30
2018-02-21T17:26:51.372Z,67.31
2018-02-21T17:29:19.139Z,67.34
2018-02-21T17:31:46.780Z,67.25
2018-02-21T17:34:14.436Z,67.35
2018-02-21T17:36:42.128Z,67.60
2018-02-21T17:39:09.789Z,67.65
2018-02-21T17:41:37.428Z,67.77
2018-02-21T17:44:05.118Z,67.84
2018-02-21T17:46:32.884Z,67.86
2018-02-21T17:49:00.648Z,68.03
2018-02-21T17:51:28.289Z,68.10
2018-02-21T17:53:56.081Z,68.30
2018-02-21T17:56:23.740Z,68.36
2018-02-21T17:58:51.384Z,68.59
2018-02-21T18:01:19.169Z,68.60
2018-02-21T18:03:46.839Z,68.98
2018-02-21T18:06:14.496Z,69.16
2018-02-21T18:08:42.140Z,69.39
2018-02-21T18:11:09.824Z,69.54
2018-02-21T18:13:37.485Z,69.67
2018-02-21T18:16:05.145Z,69.83
2018-02-21T18:18:32.785Z,70.02
2018-02-21T18:21:00.476Z,69.96
2018-02-21T18:23:28.121Z,70.13
2018-02-21T18:25:55.782Z,70.35
2018-02-21T18:28:23.529Z,70.56
2018-02-21T18:30:51.323Z,70.76
2018-02-21T18:33:19.024Z,70.78
2018-02-21T18:35:46.761Z,71.06
2018-02-21T18:38:14.520Z,71.47
2018-02-21T18:40:42.181Z,71.70
2018-02-21T18:43:09.828Z,71.99
2018-02-21T18:45:37.681Z,72.26
2018-02-21T18:48:05.349Z,72.46
2018-02-21T18:50:33.069Z,72.94
2018-02-21T18:53:00.913Z,73.25
2018-02-21T18:55:28.639Z,73.51
2018-02-21T18:57:56.394Z,73.64
2018-02-21T19:00:24.100Z,74.00
2018-02-21T19:02:51.841Z,74.34
2018-02-21T19:05:19.635Z,74.28
2018-02-21T19:07:47.431Z,74.27
2018-02-21T19:10:15.268Z,74.26
2018-02-21T19:12:43.105Z,74.34
2018-02-21T19:15:10.865Z,74.39
2018-02-21T19:17:39.038Z,74.56
2018-02-21T19:20:06.840Z,74.56
2018-02-21T19:22:34.565Z,74.33
2018-02-21T19:25:02.308Z,74.52
2018-02-21T19:27:30.039Z,74.82
2018-02-21T19:29:57.776Z,75.00
2018-02-21T19:32:25.504Z,75.19
2018-02-21T19:34:53.248Z,75.55
2018-02-21T19:37:20.981Z,75.60
2018-02-21T19:39:48.824Z,75.73
2018-02-21T19:42:16.543Z,75.62
2018-02-21T19:44:44.387Z,75.91
2018-02-21T19:47:12.104Z,76.01
2018-02-21T19:49:39.886Z,76.03
2018-02-21T19:52:07.608Z,76.12
2018-02-21T19:54:35.452Z,76.08
2018-02-21T19:57:03.172Z,76.11
2018-02-21T19:59:30.925Z,75.85
2018-02-21T20:01:58.743Z,75.93
2018-02-21T20:04:26.508Z,76.16
2018-02-21T20:06:54.250Z,76.72
2018-02-21T20:09:21.972Z,76.94
2018-02-21T20:11:49.804Z,77.08
2018-02-21T20:14:17.568Z,76.97
2018-02-21T20:16:45.344Z,76.92
2018-02-21T20:19:13.070Z,76.93
2018-02-21T20:21:40.844Z,77.34
2018-02-21T20:24:08.637Z,77.59
2018-02-21T20:26:36.504Z,77.50
2018-02-21T20:29:04.269Z,77.18
2018-02-21T20:31:32.015Z,76.77
2018-02-21T20:33:59.792Z,76.34
2018-02-21T20:36:27.545Z,76.34
2018-02-21T20:38:55.395Z,76.82
2018-02-21T20:41:23.197Z,77.38
2018-02-21T20:43:50.964Z,77.78
2018-02-21T20:46:18.728Z,77.81
2018-02-21T20:48:46.468Z,77.36
2018-02-21T20:51:14.195Z,78.00
2018-02-21T20:53:41.977Z,78.50
2018-02-21T20:56:09.700Z,78.71
2018-02-21T20:58:37.450Z,78.83
2018-02-21T21:01:05.179Z,78.67
2018-02-21T21:03:32.980Z,78.66
2018-02-21T21:06:00.704Z,78.67
2018-02-21T21:08:28.478Z,78.67
2018-02-21T21:10:56.277Z,78.58
2018-02-21T21:13:24.036Z,78.59
2018-02-21T21:15:51.752Z,78.80
2018-02-21T21:18:19.497Z,78.96
2018-02-21T21:20:47.331Z,79.17
2018-02-21T21:23:15.096Z,79.16
2018-02-21T21:25:42.828Z,79.45
2018-02-21T21:28:10.587Z,79.51
2018-02-21T21:30:38.320Z,79.55
2018-02-21T21:33:06.037Z,79.43
2018-02-21T21:35:33.790Z,79.34
2018-02-21T21:38:01.593Z,79.15
2018-02-21T21:40:29.336Z,79.17
2018-02-21T21:42:57.048Z,79.06
2018-02-21T21:45:24.879Z,78.93
2018-02-21T21:47:52.592Z,78.86
2018-02-21T21:50:20.313Z,78.94
2018-02-21T21:52:48.036Z,78.83
2018-02-21T21:55:15.786Z,78.77
2018-02-21T21:57:43.508Z,78.73
2018-02-21T22:00:11.274Z,78.56
2018-02-21T22:02:38.998Z,78.42
2018-02-21T22:05:06.725Z,78.35
2018-02-21T22:07:34.573Z,78.30
2018-02-21T22:10:02.336Z,78.26
2018-02-21T22:12:30.101Z,78.32
2018-02-21T22:14:57.868Z,78.22
2018-02-21T22:17:25.737Z,78.14
2018-02-21T22:19:53.658Z,77.98
2018-02-21T22:22:21.398Z,77.99
2018-02-21T22:24:49.121Z,78.09
2018-02-21T22:27:16.856Z,78.29
2018-02-21T22:29:44.572Z,78.27
2018-02-21T22:32:12.320Z,78.29
2018-02-21T22:34:40.093Z,78.37
2018-02-21T22:37:07.952Z,78.72
2018-02-21T22:39:35.673Z,78.89
2018-02-21T22:42:03.392Z,79.02
2018-02-21T22:44:31.137Z,78.87
2018-02-21T22:46:58.861Z,78.81
2018-02-21T22:49:26.671Z,79.11
2018-02-21T22:51:54.449Z,79.34
2018-02-21T22:54:22.192Z,79.35
2018-02-21T22:56:49.911Z,79.41
2018-02-21T22:59:17.660Z,79.60
2018-02-21T23:01:45.380Z,79.60
2018-02-21T23:04:13.164Z,79.53
2018-02-21T23:06:40.936Z,79.66
2018-02-21T23:09:08.706Z,79.70
2018-02-21T23:11:36.469Z,79.93
2018-02-21T23:14:04.233Z,79.94
2018-02-21T23:16:31.992Z,80.04
2018-02-21T23:18:59.707Z,79.81
2018-02-21T23:21:27.444Z,80.02
2018-02-21T23:23:55.164Z,80.11
2018-02-21T23:26:22.957Z,80.07
2018-02-21T23:28:50.711Z,80.21
2018-02-21T23:31:18.481Z,80.32
2018-02-21T23:33:46.201Z,80.25
2018-02-21T23:36:14.012Z,80.21
2018-02-21T23:38:41.727Z,80.30
2018-02-21T23:41:09.557Z,80.22
2018-02-21T23:43:37.281Z,80.24
2018-02-21T23:46:04.995Z,80.30
2018-02-21T23:48:32.889Z,80.28
2018-02-21T23:51:00.674Z,80.40
2018-02-21T23:53:28.473Z,80.42
2018-02-21T23:55:56.187Z,80.49
2018-02-21T23:58:23.935Z,80.58
